Capitol Logistics 265


PANC
Ted Stevens Anchorage International Airport
Anchorage, Alaska, US
KORD
Chicago O'Hare International Airport
Chicago, Illinois, US

Route Details

Aircraft Information
Primary: Boeing 747-400BCF
Backup: Boeing 777-200LRF
Route Data
Distance: 2470nm
Sched. Duration: 5h 20m
Avg. Duration: 5h 28m (+8m)
Times Flown: 4
Recm'd Route: TED YESKA NCA13 YQD J596 YWG GEP ZZIPR FYTTE5
Planned Altitude: 35,000ft
Origin Wx: PANC 271653Z 33005KT 10SM FEW150 M10/M13 A2955 RMK AO2 SLP008 T11001128
Dest. Wx: KORD 271651Z 28014G20KT 10SM SCT034 BKN041 BKN250 M02/M10 A3004 RMK AO2 SLP181 T10221100
Notes:

Financial History
Total Freight: 737,026lbs
Average Load: 184,257lbs/flt
Fuel Used: 439,958lbs
Avg. Fuel Used: 109,990lbs/flt
Fuel Expense: $545,548
Avg. Fuel Expense: $136,387
Avg. Fuel Cost: $1.24/lbs
Total Gross Income: $1,451,941
Pilot Pay: $676
Total Expenses: $157,018
Total Revenue: $745,112
Average Revenue: $362,985.30